createdAt,value
2023-02-07T00:09:34.244Z,78.7
2023-02-07T00:18:32.628Z,59.8
2023-02-07T00:20:34.119Z,86.5
2023-02-07T00:22:35.597Z,82.9
2023-02-07T00:24:39.731Z,56.7
2023-02-07T00:26:41.306Z,79.9
2023-02-07T00:28:42.776Z,74.7
2023-02-07T00:30:46.971Z,79.7
2023-02-07T00:34:49.823Z,94
2023-02-07T00:36:53.961Z,69.2
2023-02-07T00:38:55.444Z,76.7
2023-02-07T00:40:56.903Z,84.3
2023-02-07T00:43:01.062Z,69.5
2023-02-07T00:47:04.018Z,82.2
2023-02-07T00:49:08.150Z,80.8
2023-02-07T00:55:15.214Z,113.9
2023-02-07T00:57:16.680Z,88.5
2023-02-07T00:59:18.121Z,88.9
2023-02-07T01:01:22.303Z,102
2023-02-07T01:03:23.732Z,84
2023-02-07T01:05:25.169Z,108.6
2023-02-07T01:07:29.306Z,72.7
2023-02-07T01:09:30.762Z,107.7
2023-02-07T01:11:32.170Z,97.3
2023-02-07T01:13:36.312Z,101.1
2023-02-07T01:15:38.002Z,137.7
2023-02-07T01:17:39.192Z,106.6
2023-02-07T01:19:43.312Z,105.6
2023-02-07T01:21:44.826Z,116.8
2023-02-07T01:23:46.220Z,111.8
2023-02-07T01:25:50.334Z,112.7
2023-02-07T01:27:51.821Z,96.7
2023-02-07T01:29:53.265Z,101
2023-02-07T01:31:57.394Z,83.1
2023-02-07T01:33:58.819Z,75.2
2023-02-07T01:36:00.271Z,96.3
2023-02-07T01:38:04.360Z,96.7
2023-02-07T01:40:05.833Z,114.8
2023-02-07T01:42:07.231Z,99.5
2023-02-07T01:47:16.735Z,83.5
2023-02-07T01:49:18.182Z,81.7
2023-02-07T01:51:19.586Z,84.3
2023-02-07T01:53:23.719Z,63.9
2023-02-07T01:55:25.163Z,104.3
2023-02-07T02:01:32.169Z,96.1
2023-02-07T02:03:33.561Z,65.2
2023-02-07T02:11:44.618Z,68
2023-02-07T02:15:47.511Z,80.5
2023-02-07T02:17:51.567Z,100.7
2023-02-07T02:19:53.003Z,89.8
2023-02-07T02:21:54.444Z,82.7
2023-02-07T02:23:58.542Z,93
2023-02-07T02:25:59.965Z,88.4
2023-02-07T02:28:01.509Z,81.2
2023-02-07T02:30:05.477Z,102.7
2023-02-07T02:32:06.929Z,88
2023-02-07T02:34:08.363Z,83
2023-02-07T02:36:12.482Z,74.5
2023-02-07T02:40:15.295Z,94.3
2023-02-07T02:42:19.388Z,69.6
2023-02-07T02:44:20.821Z,89.1
2023-02-07T02:46:22.391Z,79.1
2023-02-07T02:50:27.803Z,72.2
2023-02-07T02:52:48.585Z,101.4
2023-02-07T02:54:33.354Z,95.1
2023-02-07T02:58:36.171Z,89
2023-02-07T03:00:40.306Z,96.8
2023-02-07T03:02:41.718Z,82.2
2023-02-07T03:04:43.190Z,107.3
2023-02-07T03:11:57.458Z,88.2
2023-02-07T03:13:58.911Z,82.1
2023-02-07T03:18:04.441Z,97.7
2023-02-07T03:22:10.004Z,117.4
2023-02-07T03:24:11.421Z,85.4
2023-02-07T03:26:12.836Z,88.3
2023-02-07T03:28:17.037Z,145.3
2023-02-07T03:30:18.400Z,93.1
2023-02-07T03:49:43.178Z,67.7
2023-02-07T03:53:46.015Z,76.2
2023-02-07T03:55:50.090Z,62
2023-02-07T03:57:51.526Z,75.4
2023-02-07T03:59:52.929Z,78.7
2023-02-07T04:14:57.783Z,70.3
2023-02-07T04:16:59.168Z,77.6
2023-02-07T04:19:00.555Z,74.2
2023-02-07T04:25:07.421Z,78.8
2023-02-07T04:27:11.523Z,74.2
2023-02-07T04:29:12.897Z,76.2
2023-02-07T04:31:14.344Z,83
2023-02-07T04:38:22.486Z,64.3
2023-02-07T04:44:30.184Z,77.3
2023-02-07T04:46:31.552Z,66.9
2023-02-07T04:48:35.638Z,90.2
2023-02-07T04:50:36.990Z,77.6
2023-02-07T04:52:38.372Z,69.3
2023-02-07T04:56:43.867Z,92
2023-02-07T04:58:45.213Z,103.2
2023-02-07T05:00:49.411Z,91.8
2023-02-07T05:04:52.074Z,77.3
2023-02-07T05:06:56.271Z,108.7
2023-02-07T05:08:57.470Z,74.5
2023-02-07T05:10:58.858Z,66.8
2023-02-07T05:13:09.062Z,68
2023-02-07T05:15:10.479Z,80.2
2023-02-07T05:17:11.891Z,82.5
2023-02-07T05:19:15.926Z,56.7
2023-02-07T05:21:17.297Z,93.7
2023-02-07T05:23:18.660Z,68.1
2023-02-07T05:25:22.725Z,78.5
2023-02-07T05:29:25.466Z,91.3
2023-02-07T05:31:29.654Z,75.1
2023-02-07T05:33:30.910Z,74.7
2023-02-07T05:35:32.293Z,65
2023-02-07T05:39:37.730Z,57.3
2023-02-07T05:41:39.101Z,81.3
2023-02-07T05:47:45.862Z,75.6
2023-02-07T05:49:49.922Z,95.3
2023-02-07T05:51:51.285Z,86.4
2023-02-07T05:53:52.642Z,100.8
2023-02-07T05:57:58.054Z,84.7
2023-02-07T05:59:59.432Z,60.5
2023-02-07T06:02:03.472Z,96.8
2023-02-07T06:06:06.201Z,57.1
2023-02-07T06:08:10.237Z,73.1
2023-02-07T06:10:11.596Z,72.6
2023-02-07T06:12:12.970Z,72.7
2023-02-07T06:16:18.344Z,79.6
2023-02-07T06:22:25.090Z,86.3
2023-02-07T06:24:26.405Z,62
2023-02-07T06:29:32.154Z,56.4
2023-02-07T06:31:33.546Z,61.2
2023-02-07T06:33:34.846Z,63.9
2023-02-07T06:35:39.097Z,87.1
2023-02-07T06:37:40.196Z,77.9
2023-02-07T06:39:41.503Z,89.4
2023-02-07T06:41:45.510Z,108.1
2023-02-07T06:45:48.184Z,96.1
2023-02-07T06:47:52.211Z,105.1
2023-02-07T06:49:53.634Z,75.1
2023-02-07T06:53:58.883Z,68.6
2023-02-07T06:56:00.241Z,74.8
2023-02-07T07:13:05.891Z,66.6
2023-02-07T07:15:07.191Z,74.5
2023-02-07T07:17:08.523Z,105.6
2023-02-07T07:26:06.124Z,77.5
2023-02-07T07:28:07.529Z,72.3
2023-02-07T07:30:10.491Z,106.3
2023-02-07T07:37:20.033Z,103.5
2023-02-07T07:39:21.352Z,101
2023-02-07T07:41:25.386Z,92
2023-02-07T07:45:28.023Z,105.6
2023-02-07T07:47:32.072Z,92.9
2023-02-07T07:49:33.384Z,104.2
2023-02-07T07:58:46.155Z,103.8
2023-02-07T08:00:47.633Z,140.2
2023-02-07T08:02:51.630Z,123.4
2023-02-07T08:04:53.035Z,135.7
2023-02-07T08:06:54.449Z,137.8
2023-02-07T08:08:58.545Z,138.9
2023-02-07T08:10:59.994Z,176.1
2023-02-07T08:13:01.456Z,177.6
2023-02-07T08:19:08.494Z,154.4
2023-02-07T08:26:20.501Z,143.7
2023-02-07T08:30:26.092Z,160.3
2023-02-07T08:32:27.533Z,139.4
2023-02-07T08:36:33.171Z,140.2
2023-02-07T08:42:40.349Z,151.7
2023-02-07T08:48:47.508Z,158.8
2023-02-07T08:50:48.995Z,122.4
2023-02-07T08:52:50.498Z,134.8
2023-02-07T08:54:54.657Z,137.8
2023-02-07T08:58:57.654Z,133.6
2023-02-07T09:01:01.878Z,135.8
2023-02-07T09:03:03.331Z,154.1
2023-02-07T09:05:04.786Z,117.1
2023-02-07T09:07:08.990Z,136.2
2023-02-07T09:09:10.457Z,162.8
2023-02-07T09:11:11.994Z,136.2
2023-02-07T09:13:16.106Z,158.4
2023-02-07T09:17:19.066Z,148.3
2023-02-07T09:19:23.268Z,147.1
2023-02-07T09:21:24.833Z,143.6
2023-02-07T09:23:26.228Z,155.4
2023-02-07T09:25:30.441Z,150.4
2023-02-07T09:27:31.940Z,181.2
2023-02-07T09:29:33.439Z,163.9
2023-02-07T09:31:37.759Z,160.4
2023-02-07T09:33:39.194Z,162.9
2023-02-07T09:35:40.706Z,160.3
2023-02-07T09:37:49.673Z,174.8
2023-02-07T09:39:46.468Z,168.4
2023-02-07T09:41:48.014Z,135.2
2023-02-07T09:43:52.348Z,159.1
2023-02-07T09:45:53.850Z,146.9
2023-02-07T09:47:55.435Z,183.8
2023-02-07T09:49:59.609Z,184.9
2023-02-07T09:52:01.189Z,182.4
2023-02-07T09:58:08.724Z,174.6
2023-02-07T10:02:14.496Z,164.4
2023-02-07T10:04:16.002Z,138.5
2023-02-07T10:06:19.245Z,140.6
2023-02-07T10:08:23.383Z,159.8
2023-02-07T10:10:23.433Z,149.3
2023-02-07T10:14:29.289Z,131.4
2023-02-07T10:16:30.890Z,130.6
2023-02-07T10:22:38.330Z,144.3
2023-02-07T10:30:47.500Z,138.2
2023-02-07T10:32:51.679Z,142.9
2023-02-07T10:39:08.293Z,152.3
2023-02-07T10:41:00.794Z,143.2
2023-02-07T10:43:02.437Z,166.7
2023-02-07T10:45:06.697Z,145.7
2023-02-07T10:47:08.301Z,141.4
2023-02-07T10:49:09.917Z,120.8
2023-02-07T10:51:14.198Z,131
2023-02-07T10:55:17.477Z,147.6
2023-02-07T11:00:21.215Z,126.5
2023-02-07T11:02:22.903Z,138.8
2023-02-07T11:04:24.496Z,133.7
2023-02-07T11:08:30.473Z,148.2
2023-02-07T11:10:32.115Z,142.8
2023-02-07T11:12:36.447Z,123.5
2023-02-07T11:14:42.711Z,115.4
2023-02-07T11:22:47.520Z,137
2023-02-07T11:24:51.847Z,115.6
2023-02-07T11:33:01.322Z,126.8
2023-02-07T11:35:02.992Z,116
2023-02-07T11:42:14.422Z,103.2
2023-02-07T11:44:16.158Z,126.7
2023-02-07T11:46:20.564Z,94.9
2023-02-07T11:48:22.267Z,97.4
2023-02-07T11:50:24.046Z,76.2
2023-02-07T11:52:28.501Z,101.4
2023-02-07T11:54:30.170Z,97.3
2023-02-07T11:56:31.943Z,87.7
2023-02-07T11:58:36.357Z,80.1
2023-02-07T12:00:38.095Z,74.3
2023-02-07T12:02:39.884Z,67.7
2023-02-07T12:04:44.382Z,63.7
2023-02-07T12:06:46.098Z,46.8
2023-02-07T12:08:47.905Z,41.4
2023-02-07T12:10:52.327Z,46.9
2023-02-07T12:12:54.138Z,56.6
2023-02-07T12:14:55.897Z,43.5
2023-02-07T12:17:00.340Z,30
2023-02-07T12:19:02.124Z,35.2
2023-02-07T12:21:03.926Z,23.8
2023-02-07T12:23:39.211Z,16.6
2023-02-07T12:25:10.142Z,16.1
2023-02-07T12:27:11.921Z,15
2023-02-07T12:29:16.402Z,10.3
2023-02-07T12:33:20.011Z,8.6
2023-02-07T12:35:24.472Z,8
2023-02-07T12:37:26.268Z,7.4
2023-02-07T12:39:28.064Z,6
2023-02-07T12:41:32.562Z,5.6
2023-02-07T12:49:42.312Z,4.8
2023-02-07T12:55:50.143Z,5.5
2023-02-07T12:57:51.855Z,4.1
2023-02-07T13:01:58.928Z,5.2
2023-02-07T13:04:00.615Z,5.3
2023-02-07T13:10:08.654Z,11.6
2023-02-07T13:12:13.136Z,4.9
2023-02-07T13:14:14.968Z,4.2
2023-02-07T13:16:16.829Z,5
2023-02-07T13:20:23.089Z,8.6
2023-02-07T13:22:24.910Z,10.2
2023-02-07T13:28:33.055Z,3.9
2023-02-07T13:30:37.538Z,4.3
2023-02-07T13:32:39.430Z,3.6
2023-02-07T13:36:45.697Z,5.7
2023-02-07T13:38:47.512Z,4.8
2023-02-07T13:40:49.329Z,4.6
2023-02-07T13:42:53.842Z,4.8
2023-02-07T13:44:55.678Z,4.3
2023-02-07T13:46:57.522Z,5.8
2023-02-07T13:49:01.987Z,5
2023-02-07T13:51:03.812Z,4.9
2023-02-07T13:53:05.616Z,6.5
2023-02-07T13:55:10.119Z,5.3
2023-02-07T13:59:13.705Z,4.4
2023-02-07T14:01:18.275Z,4.5
2023-02-07T14:03:20.079Z,6.5
2023-02-07T14:05:21.845Z,6.4
2023-02-07T14:09:28.138Z,5.6
2023-02-07T14:11:29.919Z,4.8
2023-02-07T14:18:40.809Z,3.8
2023-02-07T14:20:42.591Z,4.9
2023-02-07T14:22:47.054Z,4.2
2023-02-07T14:24:48.873Z,5.9
2023-02-07T14:26:50.694Z,3.8
2023-02-07T14:32:58.691Z,3.6
2023-02-07T14:47:19.238Z,57.1
2023-02-07T14:53:27.264Z,4.3
2023-02-07T14:55:29.186Z,2.9
2023-02-07T14:57:31.514Z,3.7
2023-02-07T14:59:35.236Z,3.8
2023-02-07T15:03:38.781Z,4.1
2023-02-07T15:05:43.226Z,3.4
2023-02-07T15:07:45.028Z,3.8
2023-02-07T15:09:46.957Z,3
2023-02-07T15:11:59.891Z,3.3
2023-02-07T15:13:53.001Z,4.5
2023-02-07T15:17:59.224Z,4.1
2023-02-07T15:20:00.984Z,5.4
2023-02-07T15:22:02.775Z,7
2023-02-07T15:24:07.192Z,5.8
2023-02-07T15:26:08.958Z,4.8
2023-02-07T15:28:18.283Z,11.3
2023-02-07T15:30:15.168Z,5
2023-02-07T15:32:17.024Z,5.9
2023-02-07T15:34:18.703Z,4
2023-02-07T15:36:23.120Z,4.2
2023-02-07T15:40:27.067Z,4.9
2023-02-07T15:45:35.232Z,3.6
2023-02-07T15:47:36.956Z,5.2
2023-02-07T15:49:38.725Z,7.1
2023-02-07T15:54:52.279Z,4.6
2023-02-07T15:56:54.019Z,5.8
2023-02-07T15:58:55.849Z,5.6
2023-02-07T16:01:00.211Z,6.2
2023-02-07T16:03:02.015Z,4.5
2023-02-07T16:05:03.646Z,5.2
2023-02-07T16:07:08.001Z,8.5
2023-02-07T16:11:11.443Z,13
2023-02-07T16:13:15.957Z,17.3
2023-02-07T16:15:17.525Z,7
2023-02-07T16:17:19.249Z,7.2
2023-02-07T16:19:23.627Z,6.5
2023-02-07T16:31:40.790Z,6.4
2023-02-07T16:37:50.106Z,7.8
2023-02-07T16:41:55.073Z,7.6
2023-02-07T16:43:59.410Z,9.3
2023-02-07T16:54:11.965Z,7.9
2023-02-07T16:58:17.905Z,7.6
2023-02-07T17:00:19.540Z,6
2023-02-07T17:02:23.948Z,6.9
2023-02-07T17:04:25.568Z,7.1
2023-02-07T17:06:27.059Z,11.3
2023-02-07T17:08:31.335Z,26.6
2023-02-07T17:10:32.953Z,21.1
2023-02-07T17:12:34.552Z,17.3
2023-02-07T17:14:38.868Z,13.7
2023-02-07T17:16:40.571Z,21.6
2023-02-07T17:18:42.055Z,11.1
2023-02-07T17:20:46.366Z,17.6
2023-02-07T17:22:47.962Z,37.2
2023-02-07T17:24:49.638Z,28.9
2023-02-07T17:32:00.259Z,20
2023-02-07T17:34:01.756Z,15.2
2023-02-07T17:38:07.613Z,14.4
2023-02-07T17:50:22.438Z,13.3
2023-02-07T17:52:23.988Z,10.3
2023-02-07T17:54:28.228Z,11.9
2023-02-07T17:56:29.926Z,18
2023-02-07T17:58:31.345Z,14.3
2023-02-07T18:00:35.681Z,13.5
2023-02-07T18:02:37.202Z,18.1
2023-02-07T18:04:38.686Z,15.5
2023-02-07T18:06:42.910Z,14.8
2023-02-07T18:08:44.456Z,13.2
2023-02-07T18:10:46.003Z,16.8
2023-02-07T18:12:50.251Z,16
2023-02-07T18:14:51.922Z,20.1
2023-02-07T18:25:51.939Z,17.9
2023-02-07T18:31:59.185Z,30.4
2023-02-07T18:34:00.718Z,30.7
2023-02-07T18:36:02.259Z,20.3
2023-02-07T18:40:07.961Z,21.2
2023-02-07T18:42:09.448Z,30.5
2023-02-07T18:48:16.639Z,24.2
2023-02-07T18:50:20.829Z,25.3
2023-02-07T18:52:22.344Z,46.4
2023-02-07T18:56:28.017Z,37.9
2023-02-07T19:02:35.246Z,22.9
2023-02-07T19:04:36.711Z,21.9
2023-02-07T19:06:38.174Z,22.2
2023-02-07T19:08:42.380Z,31.4
2023-02-07T19:10:43.832Z,22.8
2023-02-07T19:12:45.331Z,29.9
2023-02-07T19:14:49.500Z,33.3
2023-02-07T19:18:52.440Z,30.9
2023-02-07T19:22:58.079Z,21.1
2023-02-07T19:33:10.824Z,35.7
2023-02-07T19:35:12.382Z,25.6
2023-02-07T19:37:13.912Z,31.1
2023-02-07T19:39:17.938Z,32.3
2023-02-07T19:41:19.514Z,24.7
2023-02-07T19:43:20.900Z,20.8
2023-02-07T19:45:25.036Z,31.1
2023-02-07T19:47:26.522Z,33.3
2023-02-07T19:49:27.992Z,42.9
2023-02-07T19:51:32.143Z,33.6
2023-02-07T19:53:33.608Z,30.8
2023-02-07T19:55:35.076Z,31.4
2023-02-07T19:57:39.221Z,25.9
2023-02-07T19:59:40.686Z,38.2
2023-02-07T20:09:53.329Z,34.7
2023-02-07T20:11:54.773Z,50.9
2023-02-07T20:13:56.218Z,32
2023-02-07T20:16:00.386Z,39.5
2023-02-07T20:22:07.381Z,51.1
2023-02-07T20:24:08.808Z,42.6
2023-02-07T20:32:17.304Z,48
2023-02-07T20:34:21.419Z,38.7
2023-02-07T20:47:36.205Z,44.4
2023-02-07T20:49:40.345Z,38.3
2023-02-07T20:51:41.758Z,58.2
2023-02-07T20:53:43.193Z,42.8
2023-02-07T20:55:47.313Z,44.6
2023-02-07T20:57:48.753Z,42.4
2023-02-07T20:59:50.207Z,45.2
2023-02-07T21:05:00.254Z,36.6
2023-02-07T21:11:07.171Z,59
2023-02-07T21:13:08.605Z,49.5
2023-02-07T21:15:10.026Z,69.9
2023-02-07T21:25:22.480Z,57.9
2023-02-07T21:27:23.907Z,62.2
2023-02-07T21:29:28.019Z,61.4
2023-02-07T21:31:29.479Z,60.8
2023-02-07T21:33:30.899Z,70.4
2023-02-07T21:35:34.964Z,62.5
2023-02-07T21:37:36.380Z,65.6
2023-02-07T21:39:37.834Z,71.9
2023-02-07T21:41:41.924Z,57.6
2023-02-07T21:43:43.343Z,71.1
2023-02-07T21:45:44.801Z,71.8
2023-02-07T21:47:48.853Z,66.3
2023-02-07T21:49:50.297Z,69
2023-02-07T21:51:51.696Z,68.8
2023-02-07T21:53:55.792Z,57.4
2023-02-07T21:55:57.216Z,58.3
2023-02-07T21:57:58.595Z,56.9
2023-02-07T22:00:02.780Z,56.4
2023-02-07T22:02:04.204Z,52.8
2023-02-07T22:04:05.567Z,50.2
2023-02-07T22:06:09.670Z,56.4
2023-02-07T22:08:11.095Z,63.9
2023-02-07T22:10:12.492Z,65.7
2023-02-07T22:19:10.493Z,56.7
2023-02-07T22:21:11.910Z,60.4
2023-02-07T22:23:13.308Z,48.3
2023-02-07T22:25:17.446Z,61
2023-02-07T22:27:18.827Z,62.4
2023-02-07T22:29:20.220Z,49.7
2023-02-07T22:31:24.518Z,69.5
2023-02-07T22:35:27.117Z,64.6
2023-02-07T22:37:31.344Z,56.7
2023-02-07T22:39:32.575Z,57.4
2023-02-07T22:41:33.996Z,54.9
2023-02-07T22:43:38.068Z,54.8
2023-02-07T22:45:39.491Z,56.5
2023-02-07T22:47:40.878Z,56.1
2023-02-07T22:52:48.660Z,68.2
2023-02-07T23:02:58.279Z,49.1
2023-02-07T23:08:07.982Z,57.9
2023-02-07T23:10:09.334Z,43.9
2023-02-07T23:12:10.727Z,53.7
2023-02-07T23:14:14.798Z,58.3
2023-02-07T23:16:16.182Z,52.3
2023-02-07T23:18:17.566Z,63.2
2023-02-07T23:20:21.607Z,65.9
2023-02-07T23:22:23.008Z,53.2
2023-02-07T23:24:24.372Z,64
2023-02-07T23:26:28.423Z,71.3
2023-02-07T23:28:29.804Z,63.7
2023-02-07T23:30:31.195Z,71.1
2023-02-07T23:36:38.012Z,68.1
2023-02-07T23:42:44.817Z,60.2
2023-02-07T23:44:48.912Z,63.1
2023-02-07T23:46:50.274Z,59.5
2023-02-07T23:54:58.468Z,58
2023-02-07T23:57:02.708Z,60.6
2023-02-07T23:59:03.874Z,72.8
